createdAt,value
2018-06-22T00:01:44.036Z,15.89
2018-06-22T00:04:13.050Z,16.02
2018-06-22T00:06:42.011Z,16.04
2018-06-22T00:09:11.661Z,16.13
2018-06-22T00:11:40.641Z,15.76
2018-06-22T00:14:09.890Z,15.95
2018-06-22T00:16:38.881Z,16.14
2018-06-22T00:19:07.932Z,16.09
2018-06-22T00:21:36.932Z,16.08
2018-06-22T00:24:05.890Z,16.21
2018-06-22T00:26:34.907Z,16.08
2018-06-22T00:29:03.952Z,15.71
2018-06-22T00:31:32.945Z,15.73
2018-06-22T00:34:01.927Z,15.69
2018-06-22T00:36:30.944Z,15.66
2018-06-22T00:38:59.894Z,15.97
2018-06-22T00:41:28.889Z,16.07
2018-06-22T00:43:57.827Z,16.18
2018-06-22T00:46:26.834Z,15.86
2018-06-22T00:48:55.880Z,15.78
2018-06-22T00:51:24.882Z,15.82
2018-06-22T00:54:04.848Z,15.68
2018-06-22T00:56:33.885Z,15.71
2018-06-22T00:59:02.902Z,15.61
2018-06-22T01:01:31.974Z,15.68
2018-06-22T01:04:00.941Z,15.74
2018-06-22T01:06:29.978Z,15.71
2018-06-22T01:08:58.983Z,15.75
2018-06-22T01:11:28.003Z,15.48
2018-06-22T01:13:56.982Z,15.38
2018-06-22T01:16:25.964Z,15.42
2018-06-22T01:18:55.891Z,15.47
2018-06-22T01:21:24.910Z,15.32
2018-06-22T01:23:53.894Z,15.36
2018-06-22T01:26:22.960Z,15.47
2018-06-22T01:28:55.883Z,15.26
2018-06-22T01:31:24.902Z,15.33
2018-06-22T01:33:53.883Z,15.30
2018-06-22T01:36:22.895Z,15.33
2018-06-22T01:38:51.892Z,15.16
2018-06-22T01:41:20.854Z,15.08
2018-06-22T01:43:49.873Z,15.03
2018-06-22T01:46:18.884Z,15.03
2018-06-22T01:48:47.944Z,15.14
2018-06-22T01:51:16.930Z,15.24
2018-06-22T01:53:46.073Z,15.26
2018-06-22T01:56:15.069Z,15.16
2018-06-22T01:58:44.063Z,15.28
2018-06-22T02:01:13.054Z,15.23
2018-06-22T02:03:42.127Z,15.21
2018-06-22T02:06:11.193Z,15.14
2018-06-22T02:08:40.280Z,15.06
2018-06-22T02:11:09.327Z,14.96
2018-06-22T02:13:38.322Z,14.97
2018-06-22T02:16:07.286Z,15.09
2018-06-22T02:18:36.302Z,15.07
2018-06-22T02:21:05.265Z,15.12
2018-06-22T02:23:34.243Z,15.12
2018-06-22T02:26:03.245Z,15.11
2018-06-22T02:28:32.220Z,15.05
2018-06-22T02:31:01.220Z,15.10
2018-06-22T02:33:30.321Z,15.06
2018-06-22T02:35:59.396Z,14.80
2018-06-22T02:38:28.355Z,14.55
2018-06-22T02:41:01.758Z,14.82
2018-06-22T02:43:30.753Z,14.97
2018-06-22T02:45:59.788Z,15.01
2018-06-22T02:48:28.768Z,15.02
2018-06-22T02:50:57.882Z,15.06
2018-06-22T02:53:26.883Z,15.03
2018-06-22T02:55:55.903Z,15.04
2018-06-22T02:58:24.882Z,15.04
2018-06-22T03:00:53.946Z,14.81
2018-06-22T03:03:22.926Z,15.04
2018-06-22T03:05:51.941Z,15.12
2018-06-22T03:08:20.914Z,15.13
2018-06-22T03:10:49.915Z,14.85
2018-06-22T03:13:19.055Z,14.87
2018-06-22T03:15:48.059Z,14.85
2018-06-22T03:18:17.042Z,14.72
2018-06-22T03:20:46.034Z,14.59
2018-06-22T03:23:14.959Z,14.53
2018-06-22T03:25:43.960Z,14.47
2018-06-22T03:28:12.910Z,14.78
2018-06-22T03:30:41.920Z,14.75
2018-06-22T03:33:10.882Z,15.00
2018-06-22T03:35:39.863Z,14.90
2018-06-22T03:38:08.822Z,14.89
2018-06-22T03:40:37.833Z,14.76
2018-06-22T03:43:06.816Z,14.75
2018-06-22T03:45:35.773Z,14.73
2018-06-22T03:48:04.853Z,14.94
2018-06-22T03:50:33.826Z,14.84
2018-06-22T03:53:02.876Z,14.41
2018-06-22T03:55:31.863Z,14.43
2018-06-22T03:58:00.813Z,15.00
2018-06-22T04:00:29.761Z,15.26
2018-06-22T04:02:58.704Z,15.00
2018-06-22T04:05:27.652Z,15.04
2018-06-22T04:07:56.654Z,15.24
2018-06-22T04:10:25.659Z,15.29
2018-06-22T04:12:54.654Z,15.41
2018-06-22T04:15:23.578Z,15.09
2018-06-22T04:17:53.642Z,14.93
2018-06-22T04:20:23.746Z,15.34
2018-06-22T04:22:53.178Z,15.20
2018-06-22T04:25:24.059Z,15.08
2018-06-22T04:27:53.486Z,14.80
2018-06-22T04:30:22.430Z,15.30
2018-06-22T04:32:51.747Z,15.61
2018-06-22T04:35:20.680Z,15.69
2018-06-22T04:37:49.751Z,15.84
2018-06-22T04:40:18.697Z,15.80
2018-06-22T04:42:47.677Z,15.73
2018-06-22T04:45:16.711Z,14.80
2018-06-22T04:47:45.696Z,15.12
2018-06-22T04:50:14.643Z,16.36
2018-06-22T04:52:43.586Z,17.25
2018-06-22T04:55:12.575Z,18.99
2018-06-22T04:57:41.550Z,20.02
2018-06-22T05:00:10.615Z,21.14
2018-06-22T05:02:39.885Z,23.47
2018-06-22T05:05:08.875Z,23.18
2018-06-22T05:07:37.861Z,23.22
2018-06-22T05:10:06.856Z,22.92
2018-06-22T05:12:35.796Z,23.44
2018-06-22T05:15:04.809Z,22.75
2018-06-22T05:17:33.738Z,22.19
2018-06-22T05:20:02.742Z,22.25
2018-06-22T05:22:31.712Z,23.71
2018-06-22T05:25:00.787Z,22.84
2018-06-22T05:27:29.722Z,22.11
2018-06-22T05:29:58.732Z,21.56
2018-06-22T05:32:27.703Z,23.29
2018-06-22T05:34:56.678Z,23.49
2018-06-22T05:37:25.612Z,22.19
2018-06-22T05:39:54.634Z,19.15
2018-06-22T05:42:23.583Z,19.01
2018-06-22T05:44:52.563Z,19.09
2018-06-22T05:47:21.518Z,19.23
2018-06-22T05:49:50.526Z,20.01
2018-06-22T05:52:19.512Z,19.99
2018-06-22T05:54:48.474Z,19.79
2018-06-22T05:57:17.454Z,22.73
2018-06-22T05:59:46.396Z,22.91
2018-06-22T06:02:15.402Z,24.77
2018-06-22T06:04:44.444Z,25.46
2018-06-22T06:07:13.436Z,22.26
2018-06-22T06:09:42.395Z,23.88
2018-06-22T06:12:11.439Z,24.20
2018-06-22T06:14:40.368Z,22.33
2018-06-22T06:17:09.371Z,20.44
2018-06-22T06:19:38.295Z,19.96
2018-06-22T06:22:07.323Z,20.14
2018-06-22T06:24:36.248Z,21.32
2018-06-22T06:27:05.263Z,22.16
2018-06-22T06:29:34.234Z,18.68
2018-06-22T06:32:03.266Z,19.00
2018-06-22T06:34:32.184Z,19.69
2018-06-22T06:37:01.182Z,18.62
2018-06-22T06:39:30.522Z,18.03
2018-06-22T06:41:59.537Z,18.99
2018-06-22T06:44:28.507Z,19.25
2018-06-22T06:46:57.655Z,19.15
2018-06-22T06:49:26.575Z,19.88
2018-06-22T06:51:56.660Z,20.37
2018-06-22T06:54:25.722Z,20.91
2018-06-22T06:56:55.298Z,21.79
2018-06-22T06:59:24.734Z,21.47
2018-06-22T07:01:54.123Z,21.13
2018-06-22T07:04:23.104Z,21.21
2018-06-22T07:06:52.066Z,20.71
2018-06-22T07:09:21.064Z,20.24
2018-06-22T07:11:50.019Z,18.51
2018-06-22T07:14:19.207Z,18.65
2018-06-22T07:16:48.149Z,18.29
2018-06-22T07:19:17.114Z,18.83
2018-06-22T07:21:46.124Z,19.19
2018-06-22T07:24:15.237Z,18.63
2018-06-22T07:26:44.174Z,18.96
2018-06-22T07:29:13.174Z,19.20
2018-06-22T07:31:42.090Z,19.72
2018-06-22T07:34:11.082Z,19.92
2018-06-22T07:36:40.027Z,19.17
2018-06-22T07:39:11.194Z,19.11
2018-06-22T07:41:40.354Z,19.42
2018-06-22T07:44:09.625Z,19.10
2018-06-22T07:46:38.542Z,19.25
2018-06-22T07:49:07.537Z,19.17
2018-06-22T07:51:36.461Z,19.67
2018-06-22T07:54:05.449Z,19.65
2018-06-22T07:56:34.677Z,19.64
2018-06-22T07:59:03.674Z,19.24
2018-06-22T08:01:32.960Z,19.22
2018-06-22T08:04:01.947Z,18.96
2018-06-22T08:06:30.873Z,19.35
2018-06-22T08:08:59.770Z,19.27
2018-06-22T08:11:28.785Z,19.38
2018-06-22T08:13:57.776Z,19.00
2018-06-22T08:16:26.763Z,18.62
2018-06-22T08:18:55.694Z,18.60
2018-06-22T08:21:24.668Z,18.51
2018-06-22T08:23:53.631Z,18.53
2018-06-22T08:26:22.790Z,18.83
2018-06-22T08:28:51.728Z,19.96
2018-06-22T08:31:20.714Z,20.54
2018-06-22T08:33:49.664Z,20.53
2018-06-22T08:36:18.701Z,20.77
2018-06-22T08:38:47.665Z,22.67
2018-06-22T08:41:16.657Z,21.97
2018-06-22T08:43:45.592Z,21.60
2018-06-22T08:46:14.555Z,20.60
2018-06-22T08:48:43.704Z,21.44
2018-06-22T08:51:12.687Z,21.53
2018-06-22T08:53:41.610Z,21.56
2018-06-22T08:56:10.620Z,20.63
2018-06-22T08:58:39.566Z,20.29
2018-06-22T09:01:08.578Z,20.56
2018-06-22T09:03:37.594Z,20.99
2018-06-22T09:06:06.626Z,20.33
2018-06-22T09:08:35.634Z,20.95
2018-06-22T09:11:04.550Z,20.73
2018-06-22T09:13:33.582Z,19.11
2018-06-22T09:16:03.182Z,19.42
2018-06-22T09:18:32.184Z,19.23
2018-06-22T09:21:01.214Z,19.52
2018-06-22T09:23:30.204Z,19.75
2018-06-22T09:25:59.144Z,19.27
2018-06-22T09:28:28.123Z,19.16
2018-06-22T09:30:57.077Z,19.49
2018-06-22T09:33:26.056Z,19.59
2018-06-22T09:35:54.979Z,19.73
2018-06-22T09:38:23.964Z,19.62
2018-06-22T09:40:53.007Z,19.43
2018-06-22T09:43:21.972Z,18.66
2018-06-22T09:45:50.947Z,19.45
2018-06-22T09:48:20.008Z,19.77
2018-06-22T09:50:49.419Z,19.10
2018-06-22T09:53:18.411Z,19.25
2018-06-22T09:55:47.342Z,19.52
2018-06-22T09:58:16.327Z,19.88
2018-06-22T10:00:53.599Z,20.09
2018-06-22T10:03:23.803Z,20.17
2018-06-22T10:05:52.754Z,20.04
2018-06-22T10:08:21.826Z,19.96
2018-06-22T10:10:51.654Z,19.91
2018-06-22T10:13:20.603Z,19.72
2018-06-22T10:15:51.626Z,19.71
2018-06-22T10:18:20.603Z,19.83
2018-06-22T10:20:49.889Z,20.00
2018-06-22T10:23:18.802Z,20.14
2018-06-22T10:25:47.776Z,23.27
2018-06-22T10:28:16.805Z,25.51
2018-06-22T10:30:45.916Z,26.88
2018-06-22T10:33:15.053Z,26.68
2018-06-22T10:35:44.016Z,25.98
2018-06-22T10:38:13.013Z,27.05
2018-06-22T10:40:41.997Z,25.21
2018-06-22T10:43:10.963Z,24.45
2018-06-22T10:45:40.116Z,23.22
2018-06-22T10:48:09.090Z,22.91
2018-06-22T10:50:38.056Z,22.90
2018-06-22T10:53:07.024Z,22.62
2018-06-22T10:55:36.004Z,22.59
2018-06-22T10:58:05.492Z,21.39
2018-06-22T11:00:34.439Z,21.23
2018-06-22T11:03:03.387Z,21.33
2018-06-22T11:05:32.395Z,21.15
2018-06-22T11:08:01.377Z,20.47
2018-06-22T11:10:30.365Z,20.04
2018-06-22T11:12:59.296Z,20.57
2018-06-22T11:15:28.357Z,20.76
2018-06-22T11:17:57.360Z,20.10
2018-06-22T11:20:26.334Z,20.37
2018-06-22T11:22:55.264Z,20.96
2018-06-22T11:25:24.228Z,21.28
2018-06-22T11:27:53.240Z,21.72
2018-06-22T11:30:22.148Z,21.08
2018-06-22T11:32:51.095Z,21.15
2018-06-22T11:35:20.062Z,21.45
2018-06-22T11:37:49.026Z,21.16
2018-06-22T11:40:18.056Z,20.53
2018-06-22T11:42:47.045Z,20.60
2018-06-22T11:45:16.065Z,20.03
2018-06-22T11:47:45.046Z,20.37
2018-06-22T11:50:14.017Z,20.21
2018-06-22T11:52:43.095Z,21.24
2018-06-22T11:55:12.015Z,21.74
2018-06-22T11:57:41.022Z,22.35
2018-06-22T12:00:09.983Z,23.27
2018-06-22T12:02:39.096Z,23.80
2018-06-22T12:05:08.011Z,23.68
2018-06-22T12:07:36.988Z,23.86
2018-06-22T12:10:05.994Z,23.38
2018-06-22T12:12:34.961Z,23.98
2018-06-22T12:15:03.912Z,24.54
2018-06-22T12:17:32.906Z,24.43
2018-06-22T12:20:01.876Z,23.56
2018-06-22T12:22:30.846Z,23.18
2018-06-22T12:24:59.845Z,23.25
2018-06-22T12:27:28.857Z,23.33
2018-06-22T12:29:58.484Z,23.36
2018-06-22T12:32:27.741Z,23.34
2018-06-22T12:34:56.722Z,22.19
2018-06-22T12:37:25.694Z,23.57
2018-06-22T12:39:54.697Z,23.48
2018-06-22T12:42:23.628Z,23.95
2018-06-22T12:44:53.067Z,23.43
2018-06-22T12:47:22.045Z,22.81
2018-06-22T12:49:51.134Z,22.97
2018-06-22T12:52:20.089Z,22.87
2018-06-22T12:54:49.094Z,23.00
2018-06-22T12:57:18.047Z,23.26
2018-06-22T12:59:47.036Z,23.88
2018-06-22T13:02:16.264Z,24.71
2018-06-22T13:04:45.406Z,24.31
2018-06-22T13:07:14.342Z,24.65
2018-06-22T13:09:43.345Z,24.08
2018-06-22T13:12:12.377Z,24.31
2018-06-22T13:14:41.359Z,24.13
2018-06-22T13:17:10.270Z,23.73
2018-06-22T13:19:39.269Z,23.72
2018-06-22T13:22:08.346Z,24.13
2018-06-22T13:24:37.262Z,24.00
2018-06-22T13:27:06.269Z,23.85
2018-06-22T13:29:35.271Z,23.79
2018-06-22T13:32:04.258Z,23.92
2018-06-22T13:34:33.235Z,23.39
2018-06-22T13:37:02.218Z,22.87
2018-06-22T13:39:31.119Z,22.61
2018-06-22T13:42:00.094Z,22.69
2018-06-22T13:44:29.056Z,23.02
2018-06-22T13:46:58.214Z,23.10
2018-06-22T13:49:30.186Z,22.96
2018-06-22T13:51:59.140Z,23.58
2018-06-22T13:54:28.095Z,22.83
2018-06-22T13:56:57.137Z,22.30
2018-06-22T13:59:26.076Z,22.81
2018-06-22T14:01:55.781Z,23.53
2018-06-22T14:04:29.838Z,23.63
2018-06-22T14:06:58.818Z,23.32
2018-06-22T14:09:27.846Z,23.36
2018-06-22T14:11:56.944Z,22.46
2018-06-22T14:14:25.870Z,23.12
2018-06-22T14:16:54.846Z,23.19
2018-06-22T14:19:23.779Z,23.41
2018-06-22T14:21:52.757Z,23.02
2018-06-22T14:24:21.705Z,22.98
2018-06-22T14:26:50.737Z,23.16
2018-06-22T14:29:19.648Z,23.50
2018-06-22T14:31:48.606Z,23.13
2018-06-22T14:34:17.528Z,23.20
2018-06-22T14:36:46.672Z,23.14
2018-06-22T14:39:15.635Z,23.78
2018-06-22T14:41:44.569Z,24.13
2018-06-22T14:44:13.537Z,24.32
2018-06-22T14:46:42.504Z,24.11
2018-06-22T14:49:11.471Z,24.08
2018-06-22T14:51:40.449Z,24.00
2018-06-22T14:54:14.486Z,23.47
2018-06-22T14:56:48.659Z,23.64
2018-06-22T14:59:22.895Z,23.59
2018-06-22T15:01:56.781Z,23.73
2018-06-22T15:04:30.977Z,24.04
2018-06-22T15:07:05.062Z,23.84
2018-06-22T15:09:34.062Z,24.45
2018-06-22T15:12:03.009Z,24.94
2018-06-22T15:14:32.004Z,25.04
2018-06-22T15:17:01.009Z,24.75
2018-06-22T15:19:29.983Z,23.90
2018-06-22T15:21:58.918Z,24.23
2018-06-22T15:24:27.915Z,24.51
2018-06-22T15:26:56.891Z,24.34
2018-06-22T15:29:25.892Z,24.57
2018-06-22T15:31:54.866Z,24.53
2018-06-22T15:34:28.982Z,24.66
2018-06-22T15:37:03.116Z,23.39
2018-06-22T15:39:37.211Z,23.18
2018-06-22T15:42:11.572Z,23.58
2018-06-22T15:44:45.626Z,23.23
2018-06-22T15:47:19.611Z,23.52
2018-06-22T15:49:53.789Z,23.55
2018-06-22T15:52:27.891Z,23.61
2018-06-22T15:55:01.436Z,23.35
2018-06-22T15:57:30.451Z,23.43
2018-06-22T15:59:59.496Z,23.18
2018-06-22T16:02:33.609Z,22.89
2018-06-22T16:05:02.612Z,22.59
2018-06-22T16:07:31.558Z,22.43
2018-06-22T16:10:01.721Z,22.56
2018-06-22T16:12:34.677Z,22.10
2018-06-22T16:15:08.903Z,21.92
2018-06-22T16:17:43.189Z,22.15
2018-06-22T16:20:17.386Z,22.07
2018-06-22T16:22:51.477Z,22.41
2018-06-22T16:25:25.608Z,22.41
2018-06-22T16:27:56.436Z,22.01
2018-06-22T16:30:26.062Z,22.08
2018-06-22T16:32:55.096Z,22.41
2018-06-22T16:35:24.463Z,22.81
2018-06-22T16:37:53.626Z,22.75
2018-06-22T16:40:22.616Z,22.64
2018-06-22T16:42:51.634Z,22.54
2018-06-22T16:45:20.648Z,22.70
2018-06-22T16:47:49.663Z,22.22
2018-06-22T16:50:18.611Z,22.20
2018-06-22T16:52:47.582Z,21.50
2018-06-22T16:55:16.545Z,21.88
2018-06-22T16:57:45.670Z,21.49
2018-06-22T17:00:14.616Z,21.21
2018-06-22T17:02:43.605Z,21.43
2018-06-22T17:05:12.554Z,21.48
2018-06-22T17:07:46.637Z,21.66
2018-06-22T17:10:20.623Z,21.48
2018-06-22T17:12:54.748Z,21.34
2018-06-22T17:15:28.823Z,21.40
2018-06-22T17:18:03.063Z,21.68
2018-06-22T17:20:32.008Z,21.73
2018-06-22T17:23:00.962Z,21.59
2018-06-22T17:25:29.894Z,21.76
2018-06-22T17:27:58.866Z,21.89
2018-06-22T17:30:27.844Z,21.71
2018-06-22T17:32:56.854Z,21.45
2018-06-22T17:35:25.830Z,21.20
2018-06-22T17:37:54.815Z,21.17
2018-06-22T17:40:23.837Z,21.41
2018-06-22T17:42:52.791Z,21.10
2018-06-22T17:45:21.815Z,21.06
2018-06-22T17:47:50.756Z,21.25
2018-06-22T17:50:24.835Z,20.68
2018-06-22T17:52:53.773Z,20.89
2018-06-22T17:55:22.755Z,21.07
2018-06-22T17:57:51.699Z,20.66
2018-06-22T18:00:25.870Z,20.67
2018-06-22T18:03:00.039Z,20.67
2018-06-22T18:05:34.186Z,20.47
2018-06-22T18:08:03.232Z,20.68
2018-06-22T18:10:37.275Z,20.65
2018-06-22T18:13:06.413Z,20.77
2018-06-22T18:15:35.367Z,20.46
2018-06-22T18:18:04.313Z,20.63
2018-06-22T18:20:33.290Z,20.76
2018-06-22T18:23:02.333Z,20.39
2018-06-22T18:25:31.287Z,20.25
2018-06-22T18:28:00.230Z,19.86
2018-06-22T18:30:29.234Z,19.87
2018-06-22T18:32:58.170Z,20.04
2018-06-22T18:35:27.195Z,19.87
2018-06-22T18:37:56.121Z,20.25
2018-06-22T18:40:25.092Z,20.52
2018-06-22T18:42:54.050Z,20.58
2018-06-22T18:45:23.024Z,20.72
2018-06-22T18:47:51.953Z,20.54
2018-06-22T18:50:20.905Z,20.45
2018-06-22T18:52:54.987Z,20.62
2018-06-22T18:55:29.231Z,20.50
2018-06-22T18:58:03.443Z,20.54
2018-06-22T19:00:37.486Z,20.55
2018-06-22T19:03:11.478Z,20.55
2018-06-22T19:05:40.422Z,20.61
2018-06-22T19:08:09.389Z,20.36
2018-06-22T19:10:38.330Z,20.34
2018-06-22T19:13:07.342Z,20.11
2018-06-22T19:15:36.316Z,20.14
2018-06-22T19:18:05.294Z,20.15
2018-06-22T19:20:34.224Z,20.09
2018-06-22T19:23:03.216Z,20.01
2018-06-22T19:25:32.178Z,20.00
2018-06-22T19:28:01.237Z,19.72
2018-06-22T19:30:30.185Z,19.61
2018-06-22T19:32:59.179Z,19.25
2018-06-22T19:35:28.146Z,19.51
2018-06-22T19:37:57.140Z,19.47
2018-06-22T19:40:26.113Z,19.18
2018-06-22T19:42:55.151Z,19.24
2018-06-22T19:45:29.251Z,19.32
2018-06-22T19:48:03.625Z,19.42
2018-06-22T19:50:37.890Z,19.48
2018-06-22T19:53:11.984Z,19.51
2018-06-22T19:55:40.935Z,19.26
2018-06-22T19:58:09.975Z,19.29
2018-06-22T20:00:38.933Z,18.51
2018-06-22T20:03:07.932Z,18.94
2018-06-22T20:05:36.914Z,19.10
2018-06-22T20:08:06.064Z,19.01
2018-06-22T20:10:35.043Z,19.02
2018-06-22T20:13:04.062Z,19.11
2018-06-22T20:15:33.023Z,18.76
2018-06-22T20:18:02.027Z,18.72
2018-06-22T20:20:31.009Z,18.88
2018-06-22T20:22:59.999Z,18.58
2018-06-22T20:25:34.130Z,18.52
2018-06-22T20:28:03.154Z,18.65
2018-06-22T20:30:32.116Z,18.43
2018-06-22T20:33:01.165Z,18.56
2018-06-22T20:35:35.395Z,18.65
2018-06-22T20:38:09.655Z,18.67
2018-06-22T20:40:43.795Z,18.51
2018-06-22T20:43:17.857Z,18.55
2018-06-22T20:45:51.655Z,18.59
2018-06-22T20:48:25.673Z,18.56
2018-06-22T20:50:54.683Z,18.02
2018-06-22T20:53:23.801Z,18.09
2018-06-22T20:55:52.771Z,18.00
2018-06-22T20:58:21.972Z,17.76
2018-06-22T21:00:51.345Z,17.96
2018-06-22T21:03:20.330Z,17.89
2018-06-22T21:05:49.334Z,17.56
2018-06-22T21:08:18.278Z,17.83
2018-06-22T21:10:47.439Z,17.55
2018-06-22T21:13:16.419Z,16.60
2018-06-22T21:15:45.431Z,16.94
2018-06-22T21:18:14.477Z,17.22
2018-06-22T21:20:48.542Z,17.33
2018-06-22T21:23:17.522Z,17.38
2018-06-22T21:25:46.513Z,17.44
2018-06-22T21:28:20.597Z,17.30
2018-06-22T21:30:54.829Z,17.32
2018-06-22T21:33:28.978Z,17.11
2018-06-22T21:36:03.110Z,17.06
2018-06-22T21:38:37.241Z,17.21
2018-06-22T21:41:06.253Z,17.03
2018-06-22T21:43:35.194Z,16.87
2018-06-22T21:46:04.171Z,17.10
2018-06-22T21:48:33.123Z,16.96
2018-06-22T21:51:02.089Z,16.99
2018-06-22T21:53:31.078Z,17.02
2018-06-22T21:56:00.141Z,17.26
2018-06-22T21:58:29.106Z,17.04
2018-06-22T22:00:58.167Z,16.93
2018-06-22T22:03:27.110Z,16.79
2018-06-22T22:05:56.103Z,16.91
2018-06-22T22:08:25.063Z,16.84
2018-06-22T22:10:59.267Z,16.88
2018-06-22T22:13:28.239Z,16.70
2018-06-22T22:15:57.243Z,16.83
2018-06-22T22:18:26.223Z,16.73
2018-06-22T22:20:55.198Z,16.87
2018-06-22T22:23:24.184Z,16.78
2018-06-22T22:25:53.136Z,16.85
2018-06-22T22:28:22.143Z,16.98
2018-06-22T22:30:51.073Z,17.06
2018-06-22T22:33:20.092Z,17.03
2018-06-22T22:35:49.063Z,16.90
2018-06-22T22:38:18.114Z,16.74
2018-06-22T22:40:47.086Z,16.74
2018-06-22T22:43:16.132Z,16.56
2018-06-22T22:45:45.115Z,16.76
2018-06-22T22:48:14.118Z,16.86
2018-06-22T22:50:43.080Z,16.43
2018-06-22T22:53:12.133Z,16.05
2018-06-22T22:55:41.114Z,16.45
2018-06-22T22:58:10.129Z,16.35
2018-06-22T23:00:39.106Z,16.31
2018-06-22T23:03:08.122Z,16.45
2018-06-22T23:05:37.113Z,16.50
2018-06-22T23:08:06.294Z,16.63
2018-06-22T23:10:35.278Z,16.48
2018-06-22T23:13:04.304Z,16.35
2018-06-22T23:15:33.336Z,16.24
2018-06-22T23:18:02.337Z,16.17
2018-06-22T23:20:31.287Z,16.21
2018-06-22T23:23:11.362Z,16.04
2018-06-22T23:25:40.325Z,15.97
2018-06-22T23:28:09.311Z,15.60
2018-06-22T23:30:38.254Z,15.75
2018-06-22T23:33:07.308Z,16.03
2018-06-22T23:35:36.290Z,15.99
2018-06-22T23:38:05.291Z,15.82
2018-06-22T23:40:34.214Z,15.60
2018-06-22T23:43:03.323Z,15.70
2018-06-22T23:45:32.303Z,15.66
2018-06-22T23:48:01.377Z,15.68
2018-06-22T23:50:30.311Z,15.64
2018-06-22T23:52:59.262Z,15.54
2018-06-22T23:55:28.253Z,15.53
2018-06-22T23:57:57.229Z,15.58
